Time;durP1;ratioP1;P1;durP2;ratioP2;P2;SDS_P1;SDS_P2;PMS_P1;PMS_P2;Temp;Humidity;BMP_temperature;BMP_pressure;BME280_temperature;BME280_humidity;BME280_pressure;Samples;Min_cycle;Max_cycle;Signal;HPM_P1;HPM_P2
2022/12/26 00:02:00;;;;;;;;;84.33;62.33;;;;;6.52;100.00;100209.06;6314684;20;3647136;-59
2022/12/26 00:04:30;;;;;;;;;82.33;63.00;;;;;6.37;100.00;100209.63;6279359;20;3641970;-59
2022/12/26 00:07:19;;;;;;;;;79.67;60.00;;;;;6.55;100.00;100216.09;6313506;20;3627349;-58
2022/12/26 00:09:49;;;;;;;;;83.33;63.00;;;;;6.30;100.00;100208.97;6315468;20;3648260;-57
2022/12/26 00:12:18;;;;;;;;;81.00;62.00;;;;;6.33;100.00;100214.19;6282140;20;2829453;-58
2022/12/26 00:14:48;;;;;;;;;78.67;60.00;;;;;6.38;100.00;100211.38;6313320;20;3630492;-58
2022/12/26 00:17:18;;;;;;;;;86.67;69.00;;;;;6.35;100.00;100212.34;6313592;20;3663822;-59
2022/12/26 00:19:47;;;;;;;;;85.33;69.67;;;;;6.54;100.00;100211.69;6312693;20;3667031;-58
2022/12/26 00:22:17;;;;;;;;;87.00;70.33;;;;;6.59;100.00;100204.41;6314685;20;3658622;-58
2022/12/26 00:24:47;;;;;;;;;233.25;195.50;;;;;6.54;100.00;100204.56;6282190;20;3731517;-59
2022/12/26 00:27:15;;;;;;;;;129.50;116.50;;;;;6.34;100.00;100210.59;6270947;20;1959389;-59
2022/12/26 00:29:47;;;;;;;;;77.00;60.67;;;;;6.26;100.00;100209.13;6277754;20;2864379;-58
2022/12/26 00:32:16;;;;;;;;;95.00;83.00;;;;;6.39;100.00;100213.09;6314270;20;3544031;-58
2022/12/26 00:34:45;;;;;;;;;76.67;55.67;;;;;6.34;100.00;100221.25;6275316;20;3651399;-59
2022/12/26 00:37:15;;;;;;;;;65.00;51.67;;;;;6.07;100.00;100211.59;6310994;20;3624325;-58
2022/12/26 00:39:44;;;;;;;;;68.67;50.33;;;;;5.99;100.00;100218.97;6313212;20;3637758;-58
2022/12/26 00:42:14;;;;;;;;;79.33;57.67;;;;;5.89;100.00;100221.03;6310151;20;3636860;-58
2022/12/26 00:44:43;;;;;;;;;83.00;64.00;;;;;6.00;100.00;100226.03;6312980;20;3634744;-59
2022/12/26 00:47:13;;;;;;;;;75.00;55.00;;;;;5.92;100.00;100219.16;6313853;20;3654477;-58
2022/12/26 00:49:42;;;;;;;;;78.00;60.00;;;;;5.71;100.00;100209.19;6278376;20;3515905;-58
2022/12/26 00:52:32;;;;;;;;;81.67;62.33;;;;;5.87;100.00;100213.13;6313178;20;3650445;-59
2022/12/26 00:55:02;;;;;;;;;79.00;60.67;;;;;5.76;100.00;100209.91;6310634;20;3622188;-58
2022/12/26 00:57:31;;;;;;;;;80.33;60.00;;;;;5.61;100.00;100213.97;6309350;20;3631581;-58
2022/12/26 01:00:01;;;;;;;;;84.33;62.33;;;;;5.69;100.00;100205.75;6299370;20;3631551;-59
2022/12/26 01:02:36;;;;;;;;;90.67;75.33;;;;;5.74;100.00;100198.47;6310846;20;3660784;-58
2022/12/26 01:05:10;;;;;;;;;79.00;57.00;;;;;5.62;100.00;100198.88;6281340;20;3626311;-58
2022/12/26 01:07:40;;;;;;;;;98.67;84.33;;;;;5.65;100.00;100209.41;6308090;20;3676289;-58
2022/12/26 01:10:30;;;;;;;;;80.00;59.33;;;;;5.76;100.00;100223.25;6274300;20;3640905;-59
2022/12/26 01:12:59;;;;;;;;;78.00;59.00;;;;;5.86;100.00;100218.47;6278739;20;3653387;-57
2022/12/26 01:15:29;;;;;;;;;80.00;57.33;;;;;5.81;100.00;100229.28;6312103;20;3634730;-58
2022/12/26 01:18:00;;;;;;;;;72.33;51.67;;;;;5.67;100.00;100220.91;6307853;20;3655458;-59
2022/12/26 01:20:29;;;;;;;;;78.33;58.00;;;;;5.65;100.00;100212.94;6307907;20;3649226;-58
2022/12/26 01:22:59;;;;;;;;;74.33;57.00;;;;;5.63;100.00;100221.91;6277095;20;3634709;-58
2022/12/26 01:25:29;;;;;;;;;72.00;53.33;;;;;5.54;100.00;100223.09;6310936;20;3652401;-58
2022/12/26 01:27:57;;;;;;;;;74.50;60.50;;;;;5.58;100.00;100202.53;6309450;20;2861736;-58
2022/12/26 01:30:27;;;;;;;;;86.00;64.67;;;;;5.75;100.00;100199.34;6276763;20;3650406;-58
2022/12/26 01:32:57;;;;;;;;;80.00;60.00;;;;;5.75;100.00;100183.34;6308774;20;3661722;-58
2022/12/26 01:35:25;;;;;;;;;74.00;58.00;;;;;5.68;100.00;100178.19;6276810;20;2869039;-57
2022/12/26 01:37:55;;;;;;;;;91.67;73.33;;;;;5.52;100.00;100170.78;6279386;20;3675243;-58
2022/12/26 01:40:24;;;;;;;;;80.33;60.33;;;;;5.60;100.00;100166.06;6281717;20;3631555;-58
2022/12/26 01:42:54;;;;;;;;;93.75;74.75;;;;;5.65;100.00;100182.78;6282707;20;4433621;-58
2022/12/26 01:45:32;;;;;;;;;79.67;61.67;;;;;5.59;100.00;100172.34;6313127;20;3640002;-58
2022/12/26 01:48:21;;;;;;;;;74.67;55.00;;;;;5.31;100.00;100170.56;6310978;20;3647149;-58
2022/12/26 01:50:58;;;;;;;;;74.00;55.00;;;;;5.74;100.00;100171.81;6310701;20;3637736;-58
2022/12/26 01:53:38;;;;;;;;;79.33;61.00;;;;;5.45;100.00;100157.69;6307750;20;3622271;-58
2022/12/26 01:56:18;;;;;;;;;115.33;107.67;;;;;5.49;100.00;100146.00;6309570;20;3696073;-59
2022/12/26 01:59:08;;;;;;;;;82.67;62.33;;;;;5.63;100.00;100163.31;6274335;20;3635640;-59
2022/12/26 02:01:41;;;;;;;;;78.33;61.00;;;;;5.56;100.00;100164.44;6305063;20;3629430;-58
2022/12/26 02:07:10;;;;;;;;;77.33;59.67;;;;;5.65;100.00;100162.31;6277103;20;3634631;-58
2022/12/26 02:09:39;;;;;;;;;80.33;57.33;;;;;5.44;100.00;100155.06;6309214;20;3659725;-58
2022/12/26 02:12:27;;;;;;;;;83.67;62.67;;;;;5.63;100.00;100150.84;6273602;20;3648247;-58
2022/12/26 02:15:15;;;;;;;;;80.00;59.00;;;;;5.71;100.00;100148.81;6308494;20;3635687;-58
2022/12/26 02:17:45;;;;;;;;;87.67;63.67;;;;;5.59;100.00;100153.69;6308530;20;3656536;-58
2022/12/26 02:20:28;;;;;;;;;75.33;59.67;;;;;5.55;100.00;100160.03;6310817;20;2855625;-58
2022/12/26 02:24:02;;;;;;;;;78.67;61.00;;;;;5.72;100.00;100152.34;6308749;20;3634746;-58
2022/12/26 02:27:07;;;;;;;;;80.33;59.33;;;;;5.56;100.00;100145.81;6304810;20;3636749;-58
2022/12/26 02:30:22;;;;;;;;;80.67;58.00;;;;;5.48;100.00;100141.59;6306334;20;3660664;-58
2022/12/26 02:33:18;;;;;;;;;83.33;63.00;;;;;5.63;100.00;100142.84;6276554;20;3635733;-59
2022/12/26 02:36:08;;;;;;;;;81.33;61.00;;;;;5.47;100.00;100142.50;6309095;20;3649199;-58
2022/12/26 02:39:11;;;;;;;;;75.67;58.67;;;;;5.53;100.00;100149.44;6307529;20;3635671;-59
2022/12/26 02:42:45;;;;;;;;;78.67;57.33;;;;;5.42;100.00;100147.09;6307484;20;3632538;-58
2022/12/26 02:49:20;;;;;;;;;83.50;61.00;;;;;5.56;100.00;100140.47;6315244;20;3646595;-58
2022/12/26 03:13:32;;;;;;;;;85.00;64.00;;;;;5.57;100.00;100056.97;6272394;20;3634767;-58
2022/12/26 03:19:07;;;;;;;;;95.33;75.67;;;;;5.44;100.00;100069.84;6306943;20;3687772;-58
2022/12/26 03:21:43;;;;;;;;;93.67;75.67;;;;;5.43;100.00;100084.97;6303110;20;3675237;-59
2022/12/26 03:24:17;;;;;;;;;88.25;65.75;;;;;5.68;100.00;100087.63;6277384;20;3670590;-58
2022/12/26 03:26:53;;;;;;;;;99.25;84.00;;;;;5.74;100.00;100102.56;6305799;20;3682578;-59
2022/12/26 03:32:12;;;;;;;;;92.33;66.67;;;;;5.55;100.00;100123.59;6303166;20;3673192;-57
2022/12/26 03:34:44;;;;;;;;;91.00;67.33;;;;;5.36;100.00;100139.34;6277464;20;3664887;-58
2022/12/26 03:37:53;;;;;;;;;81.67;59.33;;;;;5.49;100.00;100118.50;6274970;20;3657613;-57
2022/12/26 04:19:22;;;;;;;;;120.75;95.75;;;;;5.52;100.00;100122.84;6306434;20;4464855;-58
2022/12/26 04:46:23;;;;;;;;;95.33;68.33;;;;;5.10;100.00;100128.66;6278551;20;3670113;-58
2022/12/26 04:51:43;;;;;;;;;80.33;59.67;;;;;5.12;100.00;100134.81;6310322;20;3631562;-58
2022/12/26 04:54:12;;;;;;;;;85.67;61.33;;;;;5.16;100.00;100131.13;6313733;20;3649218;-58
2022/12/26 04:56:42;;;;;;;;;94.67;70.33;;;;;5.28;100.00;100136.06;6274129;20;3686708;-59
2022/12/26 04:59:12;;;;;;;;;91.00;65.00;;;;;5.20;100.00;100130.13;6279614;20;3663822;-59
2022/12/26 05:10:27;;;;;;;;;90.00;70.33;;;;;5.06;100.00;100130.56;6276633;20;3675350;-58
2022/12/26 05:12:57;;;;;;;;;92.00;73.00;;;;;5.16;100.00;100128.47;6276782;20;3686862;-58
2022/12/26 05:15:26;;;;;;;;;93.67;65.67;;;;;4.90;100.00;100132.84;6279965;20;3668094;-58
2022/12/26 05:29:11;;;;;;;;;91.67;69.00;;;;;4.66;100.00;100109.63;6276950;20;3662728;-58
2022/12/26 05:31:40;;;;;;;;;88.67;64.67;;;;;4.81;100.00;100109.16;6275050;20;3658604;-59
2022/12/26 05:34:12;;;;;;;;;84.67;61.67;;;;;5.02;100.00;100113.81;6272509;20;3662827;-58
2022/12/26 05:36:55;;;;;;;;;93.33;71.00;;;;;5.13;100.00;100109.94;6276509;20;3674209;-58
2022/12/26 05:39:25;;;;;;;;;90.00;66.33;;;;;5.01;100.00;100116.53;6278515;20;3671115;-58
2022/12/26 05:41:55;;;;;;;;;94.00;64.00;;;;;4.68;100.00;100115.78;6278366;20;3669046;-59
2022/12/26 05:44:24;;;;;;;;;92.67;67.00;;;;;4.89;100.00;100119.56;6279506;20;3678418;-58
2022/12/26 05:46:54;;;;;;;;;76.67;59.33;;;;;4.88;100.00;100115.19;6278875;20;3619080;-59
2022/12/26 05:49:23;;;;;;;;;94.33;66.33;;;;;4.62;100.00;100117.72;6309587;20;3668042;-58
2022/12/26 05:51:53;;;;;;;;;87.33;62.33;;;;;4.90;100.00;100108.88;6275422;20;3633664;-57
2022/12/26 05:54:22;;;;;;;;;91.67;67.00;;;;;4.69;100.00;100109.56;6312215;20;3670040;-58
2022/12/26 05:56:53;;;;;;;;;91.00;64.33;;;;;4.90;100.00;100098.25;6271078;20;3675466;-58
2022/12/26 05:59:22;;;;;;;;;86.00;60.75;;;;;4.88;100.00;100099.22;6280133;20;3645036;-58
2022/12/26 06:01:52;;;;;;;;;91.00;67.33;;;;;4.86;100.00;100096.59;6307160;20;3663834;-58
2022/12/26 06:04:22;;;;;;;;;82.33;60.00;;;;;4.97;100.00;100088.25;6277715;20;3656540;-58
2022/12/26 06:06:55;;;;;;;;;88.33;59.67;;;;;5.07;100.00;100085.25;6273488;20;3651333;-58
2022/12/26 06:09:24;;;;;;;;;84.33;61.00;;;;;4.76;100.00;100088.03;6308198;20;3631539;-58
2022/12/26 06:11:54;;;;;;;;;85.67;58.67;;;;;4.69;100.00;100094.47;6309846;20;3632607;-59
2022/12/26 06:14:23;;;;;;;;;89.25;61.25;;;;;4.66;100.00;100096.34;6315086;20;3658680;-58
2022/12/26 06:16:53;;;;;;;;;86.00;63.67;;;;;4.90;100.00;100084.94;6308146;20;3652394;-58
2022/12/26 06:19:22;;;;;;;;;85.67;62.00;;;;;4.76;100.00;100096.00;6277993;20;3666925;-59
2022/12/26 06:21:52;;;;;;;;;71.67;51.67;;;;;4.90;100.00;100100.00;6276343;20;3630583;-58
2022/12/26 06:24:22;;;;;;;;;82.33;61.33;;;;;4.97;100.00;100086.47;6308714;20;3638819;-58
2022/12/26 06:26:52;;;;;;;;;78.33;57.33;;;;;4.93;100.00;100089.31;6313529;20;3648175;-58
2022/12/26 06:29:21;;;;;;;;;76.33;60.67;;;;;4.93;100.00;100102.59;6277074;20;2857642;-59
2022/12/26 06:31:51;;;;;;;;;88.00;60.33;;;;;4.90;100.00;100100.91;6307864;20;3652335;-59
2022/12/26 06:34:20;;;;;;;;;80.33;60.00;;;;;4.89;100.00;100106.25;6276698;20;3654564;-58
2022/12/26 06:36:50;;;;;;;;;81.67;60.00;;;;;5.01;100.00;100106.75;6308499;20;3652403;-58
2022/12/26 06:39:20;;;;;;;;;80.00;55.67;;;;;4.97;100.00;100106.88;6274946;20;3645027;-58
2022/12/26 06:41:50;;;;;;;;;85.33;58.00;;;;;4.85;100.00;100081.56;6307663;20;3664230;-58
2022/12/26 06:44:20;;;;;;;;;82.67;59.33;;;;;4.91;100.00;100076.03;6278746;20;3652374;-58
2022/12/26 06:46:49;;;;;;;;;81.33;60.67;;;;;4.75;100.00;100083.63;6308928;20;3643112;-58
2022/12/26 06:49:19;;;;;;;;;74.00;54.33;;;;;4.86;100.00;100077.09;6310862;20;3646113;-58
2022/12/26 06:51:48;;;;;;;;;80.00;58.33;;;;;4.51;100.00;100082.59;6310693;20;3652344;-57
2022/12/26 06:54:18;;;;;;;;;90.00;61.67;;;;;4.60;100.00;100086.75;6274229;20;3650290;-58
2022/12/26 06:56:47;;;;;;;;;74.33;53.00;;;;;4.56;100.00;100091.31;6273002;20;3640917;-58
2022/12/26 06:59:17;;;;;;;;;78.33;55.33;;;;;4.69;100.00;100090.94;6304808;20;3637784;-59
2022/12/26 07:01:46;;;;;;;;;79.33;53.33;;;;;4.69;100.00;100090.94;6307432;20;3662848;-56
2022/12/26 07:04:16;;;;;;;;;75.33;55.33;;;;;4.68;100.00;100095.38;6275693;20;3652397;-58
2022/12/26 07:06:46;;;;;;;;;76.00;57.67;;;;;4.59;100.00;100077.91;6307119;20;3639889;-57
2022/12/26 07:09:18;;;;;;;;;77.33;58.00;;;;;4.50;100.00;100075.56;6309156;20;3619037;-58
2022/12/26 07:11:50;;;;;;;;;80.67;58.00;;;;;4.28;100.00;100066.47;6310626;20;3642948;-58
2022/12/26 07:14:19;;;;;;;;;79.67;60.33;;;;;4.65;100.00;100081.31;6309046;20;3626289;-59
2022/12/26 07:16:49;;;;;;;;;84.67;64.33;;;;;4.79;100.00;100087.06;6304029;20;3655554;-59
2022/12/26 07:19:19;;;;;;;;;81.00;57.33;;;;;4.77;100.00;100086.25;6310027;20;3650697;-58
2022/12/26 07:21:48;;;;;;;;;78.00;55.67;;;;;4.80;100.00;100094.13;6272764;20;3646109;-59
2022/12/26 07:24:22;;;;;;;;;67.33;50.00;;;;;4.90;100.00;100086.72;6308737;20;3644037;-59
2022/12/26 07:26:51;;;;;;;;;71.33;50.67;;;;;4.58;100.00;100089.50;6307780;20;3638917;-58
2022/12/26 07:29:21;;;;;;;;;76.33;57.00;;;;;4.75;100.00;100101.38;6307179;20;3628371;-58
2022/12/26 07:31:50;;;;;;;;;58.50;46.50;;;;;4.61;100.00;100102.69;6309750;20;2856562;-58
2022/12/26 07:34:19;;;;;;;;;75.67;57.33;;;;;4.88;100.00;100107.19;6280751;20;3628506;-58
2022/12/26 07:36:54;;;;;;;;;70.67;56.00;;;;;4.83;100.00;100123.28;6314990;20;2864957;-58
2022/12/26 07:39:25;;;;;;;;;73.00;54.67;;;;;4.75;100.00;100127.97;6312491;20;3647251;-58
2022/12/26 07:41:57;;;;;;;;;67.67;53.00;;;;;4.80;100.00;100126.91;6279556;20;2880712;-59
2022/12/26 07:44:30;;;;;;;;;73.67;56.67;;;;;4.93;100.00;100123.88;6310542;20;3619102;-59
2022/12/26 07:47:00;;;;;;;;;70.33;53.33;;;;;4.86;100.00;100122.34;6313699;20;3636892;-59
2022/12/26 07:49:31;;;;;;;;;73.33;55.33;;;;;4.88;100.00;100126.69;6312902;20;3637774;-59
2022/12/26 07:52:01;;;;;;;;;82.00;57.33;;;;;4.94;100.00;100126.47;6313381;20;3648166;-59
2022/12/26 07:54:31;;;;;;;;;78.67;59.67;;;;;5.12;100.00;100118.84;6282150;20;3630456;-60
2022/12/26 07:57:00;;;;;;;;;80.00;59.33;;;;;5.07;100.00;100122.50;6310850;20;3636725;-60
2022/12/26 07:59:50;;;;;;;;;75.67;58.00;;;;;4.99;100.00;100129.88;6314306;20;3607552;-60
2022/12/26 08:02:22;;;;;;;;;73.67;57.33;;;;;5.00;100.00;100130.75;6313379;20;3629451;-60
2022/12/26 08:04:51;;;;;;;;;79.67;59.00;;;;;5.05;100.00;100137.69;6306210;20;3644124;-60
2022/12/26 08:07:22;;;;;;;;;87.67;60.67;;;;;5.04;100.00;100138.59;6278864;20;3654587;-60
2022/12/26 08:09:51;;;;;;;;;92.00;69.67;;;;;5.27;100.00;100139.66;6277887;20;3687750;-60
2022/12/26 08:12:23;;;;;;;;;68.00;53.67;;;;;5.32;100.00;100127.06;6280661;20;2881744;-60
2022/12/26 08:14:52;;;;;;;;;80.67;60.33;;;;;5.21;100.00;100127.41;6313015;20;3633586;-58
2022/12/26 08:17:22;;;;;;;;;81.00;59.00;;;;;5.30;100.00;100128.91;6310490;20;3646194;-60
2022/12/26 08:19:51;;;;;;;;;79.00;58.33;;;;;5.40;100.00;100130.34;6280808;20;3646083;-60
2022/12/26 08:22:21;;;;;;;;;76.33;54.33;;;;;5.09;100.00;100113.63;6314034;20;3635709;-60
2022/12/26 08:24:50;;;;;;;;;79.00;60.00;;;;;5.28;100.00;100120.94;6312082;20;3634623;-60
2022/12/26 08:27:20;;;;;;;;;74.00;55.67;;;;;5.24;100.00;100129.09;6311862;20;3637826;-59
2022/12/26 08:29:49;;;;;;;;;81.67;59.67;;;;;5.56;100.00;100114.72;6310682;20;3649187;-60
2022/12/26 08:32:19;;;;;;;;;78.67;57.67;;;;;5.62;100.00;100118.94;6278134;20;3631530;-60
2022/12/26 08:34:48;;;;;;;;;75.00;58.33;;;;;5.42;100.00;100128.47;6312338;20;3625243;-60
2022/12/26 08:37:18;;;;;;;;;74.00;55.00;;;;;5.62;100.00;100129.59;6311259;20;3651415;-60
2022/12/26 08:39:48;;;;;;;;;77.33;57.33;;;;;5.64;100.00;100131.31;6276781;20;2888024;-59
2022/12/26 08:42:20;;;;;;;;;78.00;57.33;;;;;5.62;100.00;100140.25;6309104;20;3648318;-60
2022/12/26 08:44:49;;;;;;;;;72.00;54.00;;;;;5.65;100.00;100151.69;6274277;20;2773204;-60
2022/12/26 08:47:19;;;;;;;;;75.33;56.33;;;;;5.74;100.00;100150.50;6275439;20;3640910;-60
2022/12/26 08:49:48;;;;;;;;;77.67;61.33;;;;;5.87;100.00;100151.81;6311665;20;3610855;-60
2022/12/26 08:52:18;;;;;;;;;79.00;59.67;;;;;5.99;100.00;100147.88;6309822;20;3631545;-59
2022/12/26 08:54:48;;;;;;;;;79.00;56.00;;;;;6.02;100.00;100144.22;6313611;20;3649299;-60
2022/12/26 08:57:17;;;;;;;;;75.33;56.67;;;;;5.89;100.00;100149.94;6275910;20;2883802;-60
2022/12/26 08:59:47;;;;;;;;;74.33;57.33;;;;;6.25;100.00;100152.28;6311182;20;3640037;-60
2022/12/26 09:02:16;;;;;;;;;80.67;60.67;;;;;5.98;100.00;100158.59;6310453;20;3633074;-59
2022/12/26 09:04:46;;;;;;;;;74.00;58.67;;;;;6.04;100.00;100153.06;6311785;20;3616016;-60
2022/12/26 09:07:16;;;;;;;;;75.67;55.33;;;;;6.13;100.00;100145.59;6314741;20;3639911;-60
2022/12/26 09:09:47;;;;;;;;;67.67;49.33;;;;;5.67;100.00;100148.97;6277099;20;3640912;-59
2022/12/26 09:12:16;;;;;;;;;72.00;55.67;;;;;5.78;100.00;100151.25;6313857;20;3634784;-59
2022/12/26 09:14:46;;;;;;;;;78.33;58.00;;;;;6.01;100.00;100154.03;6314627;20;3643156;-59
2022/12/26 09:17:18;;;;;;;;;77.67;57.00;;;;;5.94;100.00;100158.69;6278970;20;3631607;-59
2022/12/26 09:19:48;;;;;;;;;73.67;55.00;;;;;5.96;100.00;100161.31;6311331;20;3623189;-61
2022/12/26 09:23:03;;;;;;;;;154.25;138.00;;;;;6.27;100.00;100149.56;6309768;20;4491916;-60
2022/12/26 09:25:08;;;;;;;;;82.00;59.33;;;;;6.49;100.00;100157.63;6278082;20;3649414;-60
2022/12/26 09:27:37;;;;;;;;;83.33;62.33;;;;;6.46;100.00;100165.75;6276906;20;3650294;-59
2022/12/26 09:30:08;;;;;;;;;83.67;63.00;;;;;6.62;100.00;100164.25;6308233;20;3636910;-60
2022/12/26 09:32:37;;;;;;;;;87.00;66.75;;;;;6.56;100.00;100164.50;6280639;20;4422196;-59
2022/12/26 09:35:08;;;;;;;;;111.33;90.67;;;;;6.38;100.00;100160.72;6304211;20;3690905;-61
2022/12/26 09:37:37;;;;;;;;;81.00;60.67;;;;;6.58;100.00;100159.94;6281359;20;3622231;-60
2022/12/26 09:40:23;;;;;;;;;77.67;57.67;;;;;6.55;100.00;100160.06;6280760;20;3646244;-58
2022/12/26 09:43:07;;;;;;;;;78.33;59.00;;;;;6.54;100.00;100155.66;6304866;20;3623188;-59
2022/12/26 09:46:31;;;;;;;;;75.33;56.67;;;;;6.68;100.00;100150.66;6303817;20;3637829;-59
2022/12/26 09:49:36;;;;;;;;;78.00;57.33;;;;;6.63;100.00;100151.78;6304883;20;3639040;-57
2022/12/26 09:52:16;;;;;;;;;69.33;51.00;;;;;6.58;100.00;100149.28;6309881;20;3638971;-58
2022/12/26 09:54:59;;;;;;;;;97.00;83.00;;;;;6.51;100.00;100142.47;6303313;20;1957721;-57
2022/12/26 09:57:47;;;;;;;;;96.67;74.33;;;;;6.69;100.00;100148.88;6278140;20;3662801;-58
2022/12/26 10:00:31;;;;;;;;;76.00;58.00;;;;;6.73;100.00;100145.16;6278559;20;3631655;-59
2022/12/26 10:03:01;;;;;;;;;73.67;55.67;;;;;6.74;100.00;100158.47;6312731;20;3634746;-56
2022/12/26 10:06:02;;;;;;;;;76.00;57.00;;;;;6.82;100.00;100159.03;6310597;20;3626304;-57
2022/12/26 10:09:27;;;;;;;;;77.67;58.00;;;;;7.09;100.00;100161.56;6307917;20;3628479;-57
2022/12/26 10:12:20;;;;;;;;;77.33;57.00;;;;;7.09;100.00;100166.91;6312707;20;3639909;-58
2022/12/26 10:15:06;;;;;;;;;80.00;56.00;;;;;6.82;100.00;100167.03;6308848;20;3656584;-57
2022/12/26 10:18:43;;;;;;;;;70.67;54.67;;;;;7.01;100.00;100169.00;6276845;20;3628437;-59
2022/12/26 10:21:29;;;;;;;;;80.00;57.67;;;;;6.74;100.00;100169.13;6314456;20;3631902;-56
2022/12/26 10:24:14;;;;;;;;;83.25;58.25;;;;;7.05;100.00;100165.25;6282925;20;3654558;-59
2022/12/26 10:26:51;;;;;;;;;78.00;57.33;;;;;7.04;100.00;100163.53;6308334;20;3625343;-58
2022/12/26 10:29:51;;;;;;;;;94.33;68.33;;;;;7.10;100.00;100160.59;6306140;20;3675406;-59
2022/12/26 10:32:42;;;;;;;;;84.00;60.00;;;;;7.06;100.00;100155.44;6274259;20;3656492;-58
2022/12/26 10:35:39;;;;;;;;;76.33;57.67;;;;;7.32;100.00;100147.28;6272692;20;3636774;-59
2022/12/26 10:38:39;;;;;;;;;80.50;58.50;;;;;7.40;100.00;100139.81;6304877;20;3532550;-58
2022/12/26 10:41:38;;;;;;;;;80.00;55.00;;;;;7.29;100.00;100141.19;6304541;20;3647296;-58
2022/12/26 10:44:12;;;;;;;;;82.00;58.00;;;;;7.38;100.00;100136.34;6274598;20;3649333;-58
2022/12/26 10:47:27;;;;;;;;;92.00;71.33;;;;;7.49;100.00;100122.53;6274542;20;3681689;-57
2022/12/26 10:49:58;;;;;;;;;82.33;59.33;;;;;7.31;100.00;100129.50;6274975;20;3646232;-57
2022/12/26 10:52:38;;;;;;;;;79.33;59.33;;;;;7.44;100.00;100122.72;6308725;20;3636294;-56
2022/12/26 10:55:17;;;;;;;;;78.00;57.67;;;;;8.04;100.00;100103.25;6275176;20;3632712;-57
2022/12/26 10:58:25;;;;;;;;;77.00;59.33;;;;;7.76;100.00;100103.59;6309723;20;3619172;-57
2022/12/26 11:00:54;;;;;;;;;79.50;59.75;;;;;7.80;100.00;100099.84;6310459;20;3640969;-58
2022/12/26 11:03:23;;;;;;;;;75.67;56.00;;;;;8.09;100.00;100096.75;6308863;20;3624423;-59
2022/12/26 11:05:57;;;;;;;;;75.50;59.00;;;;;7.87;100.00;100093.28;6275930;20;3633792;-55
2022/12/26 11:08:50;;;;;;;;;81.25;59.50;;;;;7.83;100.00;100072.97;6312661;20;4404377;-59
2022/12/26 11:11:23;;;;;;;;;66.67;50.33;;;;;8.39;100.00;100071.34;6308010;20;3645057;-59
2022/12/26 11:13:57;;;;;;;;;82.67;63.00;;;;;8.29;100.00;100074.47;6274821;20;3647418;-58
2022/12/26 11:16:38;;;;;;;;;78.67;61.00;;;;;7.80;100.00;100089.16;6306255;20;3621083;-58
2022/12/26 11:19:31;;;;;;;;;80.33;60.00;;;;;7.77;100.00;100087.50;6308277;20;3635103;-59
2022/12/26 11:22:26;;;;;;;;;134.00;118.88;;;;;7.93;100.00;100087.69;6268749;20;3725280;-59
2022/12/26 11:25:17;;;;;;;;;80.25;60.00;;;;;8.00;100.00;100086.44;6278106;20;3637760;-60
2022/12/26 11:27:51;;;;;;;;;90.33;74.67;;;;;8.11;100.00;100083.31;6310010;20;3686779;-60
2022/12/26 11:30:36;;;;;;;;;84.00;61.00;;;;;8.01;100.00;100077.50;6273622;20;2719049;-59
2022/12/26 11:33:49;;;;;;;;;73.00;53.33;;;;;8.16;100.00;100059.88;6308775;20;3642033;-59
2022/12/26 11:36:25;;;;;;;;;79.00;59.00;;;;;8.40;100.00;100067.75;6306393;20;3630538;-60
2022/12/26 11:39:05;;;;;;;;;79.33;61.67;;;;;8.19;100.00;100073.16;6275215;20;3639894;-59
2022/12/26 11:41:39;;;;;;;;;88.00;72.00;;;;;8.20;100.00;100074.00;6304619;20;3669002;-60
2022/12/26 11:44:39;;;;;;;;;109.50;95.50;;;;;8.35;100.00;100067.97;6272746;20;1947253;-59
2022/12/26 11:47:15;;;;;;;;;90.75;70.00;;;;;7.95;100.00;100071.56;6272785;20;3693163;-60
2022/12/26 11:50:10;;;;;;;;;80.67;57.33;;;;;7.98;100.00;100072.31;6304638;20;3641020;-60
2022/12/26 11:52:55;;;;;;;;;76.67;59.00;;;;;7.96;100.00;100066.16;6273902;20;3616242;-59
2022/12/26 11:55:38;;;;;;;;;77.00;60.00;;;;;8.15;100.00;100063.50;6307927;20;3610663;-60
2022/12/26 11:58:28;;;;;;;;;72.00;54.00;;;;;8.22;100.00;100061.44;6309926;20;3633594;-59
2022/12/26 12:01:00;;;;;;;;;72.00;55.67;;;;;8.28;100.00;100063.81;6310241;20;3625368;-60
2022/12/26 12:03:40;;;;;;;;;86.00;65.25;;;;;8.50;100.00;100075.28;6307942;20;4415926;-60
2022/12/26 12:06:34;;;;;;;;;83.33;65.33;;;;;8.56;100.00;100074.16;6312605;20;3649264;-59
2022/12/26 12:09:18;;;;;;;;;79.00;62.00;;;;;8.69;100.00;100074.41;6278236;20;3634114;-60
2022/12/26 12:13:07;;;;;;;;;82.00;61.00;;;;;8.71;100.00;100076.06;6276826;20;3654445;-60
2022/12/26 12:16:06;;;;;;;;;86.00;62.00;;;;;8.51;100.00;100076.19;6272623;20;3649242;-59
2022/12/26 12:18:41;;;;;;;;;83.00;58.75;;;;;8.33;100.00;100061.81;6309975;20;4404439;-59
2022/12/26 12:21:41;;;;;;;;;78.67;60.00;;;;;8.84;100.00;100054.94;6314191;20;3646165;-59
2022/12/26 12:24:31;;;;;;;;;61.00;52.00;;;;;8.65;100.00;100062.13;6282637;20;2863874;-59
2022/12/26 12:27:46;;;;;;;;;70.50;52.50;;;;;8.84;100.00;100049.59;6315769;20;3636845;-59
2022/12/26 12:30:47;;;;;;;;;75.33;57.67;;;;;8.63;100.00;100045.28;6308308;20;3616038;-60
2022/12/26 12:34:20;;;;;;;;;79.67;61.67;;;;;8.73;100.00;100038.53;6312185;20;3624311;-60
2022/12/26 12:37:07;;;;;;;;;84.75;63.50;;;;;8.62;100.00;100048.91;6317698;20;3655655;-58
2022/12/26 12:40:24;;;;;;;;;85.75;60.25;;;;;8.45;100.00;100052.34;6328320;20;3650354;-60
2022/12/26 12:43:13;;;;;;;;;82.67;60.67;;;;;8.55;100.00;100057.19;6278986;20;3651315;-59
2022/12/26 12:46:30;;;;;;;;;368.25;304.75;;;;;8.45;100.00;100049.69;6277666;20;4533603;-60
2022/12/26 12:49:27;;;;;;;;;86.00;63.67;;;;;8.39;100.00;100049.94;6281700;20;3662788;-59
2022/12/26 12:52:47;;;;;;;;;86.00;66.33;;;;;8.37;100.00;100047.31;6280224;20;3672116;-60
2022/12/26 12:55:46;;;;;;;;;84.67;65.33;;;;;8.28;100.00;100042.41;6282519;20;3663686;-60
2022/12/26 12:59:26;;;;;;;;;84.00;66.67;;;;;8.29;100.00;100047.72;6281457;20;3662902;-59
2022/12/26 13:02:05;;;;;;;;;82.67;61.00;;;;;8.02;100.00;100040.94;6280374;20;3661714;-59
2022/12/26 13:04:50;;;;;;;;;82.00;62.00;;;;;8.10;100.00;100034.28;6283886;20;3650367;-59
2022/12/26 13:07:36;;;;;;;;;79.67;61.67;;;;;8.15;100.00;100028.75;6310370;20;3625292;-59
2022/12/26 13:10:26;;;;;;;;;79.67;59.33;;;;;8.34;100.00;100026.06;6278182;20;3632684;-59
2022/12/26 13:13:12;;;;;;;;;85.00;62.00;;;;;8.15;100.00;100023.41;6313574;20;3648327;-59
2022/12/26 13:15:50;;;;;;;;;81.67;60.33;;;;;8.29;100.00;100025.41;6310686;20;3652348;-59
2022/12/26 13:18:33;;;;;;;;;74.33;56.33;;;;;8.33;100.00;100027.03;6277381;20;2869281;-61
2022/12/26 13:21:11;;;;;;;;;75.33;60.00;;;;;8.14;100.00;100030.56;6306725;20;3614829;-59
2022/12/26 13:26:53;;;;;;;;;81.33;60.33;;;;;8.11;100.00;100046.75;6276985;20;3659632;-58
2022/12/26 13:29:39;;;;;;;;;82.67;59.00;;;;;8.19;100.00;100048.19;6276543;20;3652329;-60
2022/12/26 13:32:25;;;;;;;;;83.67;60.33;;;;;8.45;100.00;100055.94;6276119;20;3651328;-60
2022/12/26 13:34:59;;;;;;;;;80.00;59.67;;;;;8.04;100.00;100055.97;6277551;20;3642953;-61
2022/12/26 13:37:37;;;;;;;;;79.33;62.00;;;;;8.24;100.00;100036.34;6275818;20;3635702;-60
2022/12/26 13:40:17;;;;;;;;;81.00;61.00;;;;;8.17;100.00;100039.38;6308824;20;3642967;-60
2022/12/26 13:45:56;;;;;;;;;79.25;56.50;;;;;8.10;100.00;100045.00;6277222;20;3647211;-60
2022/12/26 13:48:28;;;;;;;;;84.50;63.50;;;;;8.17;100.00;100034.91;6313363;20;4408573;-59
2022/12/26 13:51:01;;;;;;;;;74.00;58.67;;;;;7.87;100.00;100034.47;6312707;20;3613787;-59
2022/12/26 13:53:39;;;;;;;;;84.67;64.00;;;;;7.75;100.00;100035.91;6277236;20;3644112;-62